Time;durP1;ratioP1;P1;durP2;ratioP2;P2;SDS_P1;SDS_P2;PMS_P1;PMS_P2;Temp;Humidity;BMP_temperature;BMP_pressure;BME280_temperature;BME280_humidity;BME280_pressure;Samples;Min_cycle;Max_cycle;Signal;HPM_P1;HPM_P2
2021/12/26 09:06:14;;;;;;;8.35;3.70;;;;;;;;;;5111071;27;20384;-84
2021/12/26 09:08:40;;;;;;;6.72;3.53;;;;;;;;;;5109589;28;20482;-88
2021/12/26 09:11:06;;;;;;;7.57;3.80;;;;;;;;;;5109648;28;20164;-88
2021/12/26 09:13:33;;;;;;;8.13;3.95;;;;;;;;;;5110414;28;20063;-84
2021/12/26 09:15:59;;;;;;;8.02;3.40;;;;;;;;;;5092337;28;20050;-82
2021/12/26 09:18:25;;;;;;;6.95;3.60;;;;;;;;;;5111282;28;20442;-83
2021/12/26 09:20:51;;;;;;;6.57;3.58;;;;;;;;;;5110693;28;20100;-83
2021/12/26 09:23:17;;;;;;;9.07;4.10;;;;;;;;;;5109195;28;20055;-83
2021/12/26 09:25:43;;;;;;;7.30;3.63;;;;;;;;;;5110632;28;20058;-83
2021/12/26 09:28:09;;;;;;;7.22;3.47;;;;;;;;;;5110573;28;20040;-81
2021/12/26 09:30:36;;;;;;;7.13;3.70;;;;;;;;;;5110261;28;20040;-83
2021/12/26 09:33:03;;;;;;;7.25;4.00;;;;;;;;;;5109029;28;20044;-82
2021/12/26 09:35:29;;;;;;;7.95;4.05;;;;;;;;;;5109169;28;20218;-84
2021/12/26 09:37:55;;;;;;;7.10;3.60;;;;;;;;;;5110241;28;20036;-81
2021/12/26 09:40:21;;;;;;;11.13;3.78;;;;;;;;;;5110383;28;20471;-81
2021/12/26 09:42:47;;;;;;;7.65;3.63;;;;;;;;;;5108924;28;20040;-82
2021/12/26 09:45:14;;;;;;;8.90;3.90;;;;;;;;;;5108684;28;20036;-80
2021/12/26 09:47:41;;;;;;;6.93;3.55;;;;;;;;;;5110167;28;20036;-81
2021/12/26 09:50:08;;;;;;;8.05;3.70;;;;;;;;;;5091655;28;20040;-82
2021/12/26 09:52:34;;;;;;;7.85;3.80;;;;;;;;;;5108709;28;20123;-82
2021/12/26 09:55:00;;;;;;;7.07;3.65;;;;;;;;;;5108921;28;20043;-83
2021/12/26 09:57:28;;;;;;;8.30;3.65;;;;;;;;;;5091728;28;20563;-82
2021/12/26 09:59:54;;;;;;;8.05;3.35;;;;;;;;;;5108771;28;20100;-83
2021/12/26 10:02:21;;;;;;;8.15;3.67;;;;;;;;;;5108587;28;20039;-82
2021/12/26 10:04:48;;;;;;;9.63;3.72;;;;;;;;;;5108054;28;20067;-83
2021/12/26 10:07:25;;;;;;;8.25;3.40;;;;;;;;;;5109814;28;20533;-81
2021/12/26 10:09:52;;;;;;;7.72;3.83;;;;;;;;;;5109775;28;20332;-84
2021/12/26 10:12:20;;;;;;;6.90;3.63;;;;;;;;;;5109479;28;20035;-83
2021/12/26 10:14:51;;;;;;;6.90;3.38;;;;;;;;;;5108138;28;20044;-82
2021/12/26 10:17:23;;;;;;;6.25;3.17;;;;;;;;;;5097829;28;20066;-82
2021/12/26 10:19:50;;;;;;;8.57;3.72;;;;;;;;;;5096133;28;20109;-84
2021/12/26 10:22:17;;;;;;;7.63;3.63;;;;;;;;;;5095569;28;20040;-85
2021/12/26 10:24:44;;;;;;;9.13;3.30;;;;;;;;;;5094541;28;20047;-84
2021/12/26 10:27:15;;;;;;;9.25;3.47;;;;;;;;;;5095312;28;20480;-84
2021/12/26 10:29:43;;;;;;;8.48;3.40;;;;;;;;;;5096412;28;20063;-85
2021/12/26 10:32:13;;;;;;;8.93;3.42;;;;;;;;;;5095672;28;20383;-83
2021/12/26 10:34:41;;;;;;;8.55;3.28;;;;;;;;;;5095473;28;20129;-88
2021/12/26 10:37:10;;;;;;;9.27;3.78;;;;;;;;;;5078250;28;20079;-91
2021/12/26 10:39:40;;;;;;;8.60;3.20;;;;;;;;;;5095583;28;20040;-89
2021/12/26 10:42:09;;;;;;;6.32;3.00;;;;;;;;;;5094601;28;20040;-89
2021/12/26 10:44:36;;;;;;;7.65;3.17;;;;;;;;;;5095514;28;20083;-87
2021/12/26 10:47:05;;;;;;;7.68;3.25;;;;;;;;;;5095241;28;20040;-89
2021/12/26 10:49:43;;;;;;;8.65;3.63;;;;;;;;;;5094216;28;20113;-86
2021/12/26 10:52:11;;;;;;;6.78;3.08;;;;;;;;;;5094587;28;20387;-90
2021/12/26 10:54:41;;;;;;;6.85;3.28;;;;;;;;;;5095280;28;20036;-89
2021/12/26 10:57:14;;;;;;;7.13;3.10;;;;;;;;;;5095870;28;20048;-90
2021/12/26 10:59:42;;;;;;;6.85;3.13;;;;;;;;;;5077085;28;20498;-88
2021/12/26 11:02:08;;;;;;;6.75;3.28;;;;;;;;;;5094153;28;20044;-89
2021/12/26 11:04:35;;;;;;;7.57;3.20;;;;;;;;;;5094633;28;20056;-88
2021/12/26 11:07:04;;;;;;;7.80;3.70;;;;;;;;;;5077314;28;20133;-88
2021/12/26 11:09:30;;;;;;;7.38;2.95;;;;;;;;;;5095210;28;20043;-90
2021/12/26 11:12:00;;;;;;;6.35;3.17;;;;;;;;;;5095314;28;20071;-90
2021/12/26 11:14:26;;;;;;;7.30;2.85;;;;;;;;;;5093515;28;20079;-87
2021/12/26 11:16:52;;;;;;;7.53;3.40;;;;;;;;;;5094935;28;20039;-89
2021/12/26 11:19:37;;;;;;;10.02;3.30;;;;;;;;;;5093591;28;20103;-91
2021/12/26 11:22:03;;;;;;;6.35;3.28;;;;;;;;;;5095041;28;20127;-88
2021/12/26 11:24:30;;;;;;;7.03;3.15;;;;;;;;;;5093051;28;20050;-87
2021/12/26 11:26:56;;;;;;;8.45;3.60;;;;;;;;;;5093442;28;20518;-88
2021/12/26 11:29:21;;;;;;;7.18;3.42;;;;;;;;;;5092435;28;20036;-88
2021/12/26 11:31:50;;;;;;;7.07;3.03;;;;;;;;;;5093310;28;20044;-89
2021/12/26 11:34:17;;;;;;;8.52;3.42;;;;;;;;;;5094515;28;20441;-88
2021/12/26 11:36:43;;;;;;;8.07;3.28;;;;;;;;;;5094741;28;20036;-88
2021/12/26 11:39:09;;;;;;;6.95;3.45;;;;;;;;;;5094433;28;20036;-88
2021/12/26 11:41:41;;;;;;;6.90;3.40;;;;;;;;;;5093316;28;20055;-88
2021/12/26 11:44:16;;;;;;;7.22;2.88;;;;;;;;;;5093961;28;20484;-86
2021/12/26 11:47:01;;;;;;;9.82;3.38;;;;;;;;;;5092977;28;20032;-88
2021/12/26 11:49:43;;;;;;;7.55;3.25;;;;;;;;;;5094294;28;20040;-90
2021/12/26 11:52:33;;;;;;;9.32;3.88;;;;;;;;;;5094072;28;20546;-89
2021/12/26 11:55:34;;;;;;;10.02;2.80;;;;;;;;;;5095695;28;20040;-89
2021/12/26 11:58:06;;;;;;;6.78;3.40;;;;;;;;;;5076833;28;20093;-87
2021/12/26 12:00:34;;;;;;;8.50;3.50;;;;;;;;;;5093874;28;20144;-89
2021/12/26 12:03:01;;;;;;;8.10;3.55;;;;;;;;;;5092957;28;20055;-89
2021/12/26 12:05:38;;;;;;;9.70;3.65;;;;;;;;;;5095206;28;20086;-88
2021/12/26 12:08:08;;;;;;;7.70;3.38;;;;;;;;;;5095297;28;20040;-89
2021/12/26 12:10:48;;;;;;;6.72;3.20;;;;;;;;;;5093038;28;20062;-89
2021/12/26 12:13:23;;;;;;;10.13;4.57;;;;;;;;;;5093945;28;20040;-89
2021/12/26 12:16:01;;;;;;;8.50;2.88;;;;;;;;;;5092863;28;20039;-90
2021/12/26 12:18:29;;;;;;;8.32;3.47;;;;;;;;;;5094013;28;20036;-89
2021/12/26 12:21:13;;;;;;;8.05;3.28;;;;;;;;;;5094116;28;20047;-90
2021/12/26 12:23:54;;;;;;;7.90;3.42;;;;;;;;;;5093762;28;20460;-90
2021/12/26 12:26:39;;;;;;;6.50;2.90;;;;;;;;;;5094147;28;20123;-90
2021/12/26 12:29:05;;;;;;;7.13;3.15;;;;;;;;;;5092586;28;20047;-87
2021/12/26 12:31:31;;;;;;;7.57;3.20;;;;;;;;;;5093811;28;20517;-90
2021/12/26 12:34:04;;;;;;;8.30;3.53;;;;;;;;;;5092609;28;20129;-87
2021/12/26 12:36:32;;;;;;;8.27;3.28;;;;;;;;;;5094103;28;20036;-89
2021/12/26 12:39:13;;;;;;;8.40;3.50;;;;;;;;;;5092491;28;20554;-92
2021/12/26 12:41:43;;;;;;;7.22;3.10;;;;;;;;;;5092821;28;20124;-87
2021/12/26 12:44:28;;;;;;;6.38;2.92;;;;;;;;;;5093729;28;20078;-89
2021/12/26 12:46:57;;;;;;;7.97;3.17;;;;;;;;;;5092843;28;20104;-92
2021/12/26 12:49:40;;;;;;;10.02;3.78;;;;;;;;;;5093805;28;20036;-92
2021/12/26 12:52:07;;;;;;;7.88;3.60;;;;;;;;;;5092569;28;20055;-90
2021/12/26 12:54:34;;;;;;;6.95;3.63;;;;;;;;;;5092320;28;20047;-91
2021/12/26 12:57:01;;;;;;;8.02;3.53;;;;;;;;;;5093511;28;20491;-90
2021/12/26 12:59:35;;;;;;;7.68;3.55;;;;;;;;;;5092215;28;20039;-89
2021/12/26 13:02:06;;;;;;;7.15;3.33;;;;;;;;;;5092467;28;20476;-90
2021/12/26 13:04:45;;;;;;;6.95;3.17;;;;;;;;;;5093056;28;20088;-91
2021/12/26 13:07:30;;;;;;;10.05;3.80;;;;;;;;;;5093844;28;20079;-90
2021/12/26 13:10:00;;;;;;;7.22;3.60;;;;;;;;;;5094404;28;20502;-90
2021/12/26 13:12:26;;;;;;;7.40;3.13;;;;;;;;;;5081269;28;20101;-89
2021/12/26 13:14:57;;;;;;;6.85;3.30;;;;;;;;;;5091953;28;20093;-89
2021/12/26 13:17:28;;;;;;;7.47;3.25;;;;;;;;;;5092033;28;20047;-91
2021/12/26 13:19:56;;;;;;;7.63;3.50;;;;;;;;;;5093134;28;20040;-91
2021/12/26 13:22:23;;;;;;;9.00;3.90;;;;;;;;;;5093146;28;20051;-90
2021/12/26 13:24:49;;;;;;;6.47;2.83;;;;;;;;;;5093362;28;20496;-92
2021/12/26 13:27:22;;;;;;;6.75;2.85;;;;;;;;;;5093273;28;20054;-91
2021/12/26 13:29:49;;;;;;;6.38;3.35;;;;;;;;;;5094162;28;20390;-89
2021/12/26 13:32:15;;;;;;;9.27;2.72;;;;;;;;;;5092417;28;20433;-89
2021/12/26 13:34:41;;;;;;;6.55;2.90;;;;;;;;;;5092854;28;20047;-88
2021/12/26 13:37:07;;;;;;;6.45;3.25;;;;;;;;;;5094498;28;20036;-89
2021/12/26 13:39:33;;;;;;;6.13;2.70;;;;;;;;;;5093702;28;20433;-90
2021/12/26 13:41:59;;;;;;;9.13;2.95;;;;;;;;;;5075644;28;20097;-91
2021/12/26 13:44:25;;;;;;;7.97;3.03;;;;;;;;;;5092316;28;20418;-90
2021/12/26 13:47:00;;;;;;;8.00;3.35;;;;;;;;;;5092639;28;20391;-91
2021/12/26 13:49:26;;;;;;;6.65;3.80;;;;;;;;;;5092360;28;20123;-90
2021/12/26 13:51:55;;;;;;;8.90;3.30;;;;;;;;;;5095497;28;20540;-91
2021/12/26 13:54:26;;;;;;;7.28;2.88;;;;;;;;;;5097922;28;20047;-91
2021/12/26 13:56:58;;;;;;;8.05;3.22;;;;;;;;;;5097462;28;20123;-89
2021/12/26 13:59:28;;;;;;;7.13;3.08;;;;;;;;;;5108778;28;20044;-91
2021/12/26 14:01:54;;;;;;;7.32;2.83;;;;;;;;;;5107570;28;20119;-90
2021/12/26 14:04:23;;;;;;;6.85;2.80;;;;;;;;;;5096981;28;20036;-91
2021/12/26 14:06:49;;;;;;;6.20;2.70;;;;;;;;;;5097070;28;20507;-92
2021/12/26 14:09:15;;;;;;;6.03;2.78;;;;;;;;;;5097513;28;20036;-92
2021/12/26 14:11:41;;;;;;;7.10;3.03;;;;;;;;;;5098218;28;20097;-93
2021/12/26 14:14:08;;;;;;;6.40;2.83;;;;;;;;;;5104829;28;20040;-82
2021/12/26 14:16:41;;;;;;;7.85;2.60;;;;;;;;;;5082880;28;20036;-93
2021/12/26 14:19:09;;;;;;;6.20;2.92;;;;;;;;;;5097394;28;20484;-91
2021/12/26 14:21:42;;;;;;;6.63;3.05;;;;;;;;;;5099683;28;20040;-92
2021/12/26 14:24:08;;;;;;;5.85;2.90;;;;;;;;;;5096387;28;20051;-90
2021/12/26 14:26:39;;;;;;;7.18;3.25;;;;;;;;;;5097203;28;20048;-91
2021/12/26 14:29:14;;;;;;;6.80;2.80;;;;;;;;;;5089464;28;20093;-93
2021/12/26 14:31:40;;;;;;;9.27;3.03;;;;;;;;;;5109589;28;20035;-91
2021/12/26 14:34:10;;;;;;;6.07;2.83;;;;;;;;;;5100953;28;20055;-93
2021/12/26 14:36:47;;;;;;;5.68;2.78;;;;;;;;;;5107413;28;20039;-90
2021/12/26 14:39:13;;;;;;;10.00;3.58;;;;;;;;;;5113819;28;20047;-90
2021/12/26 14:41:41;;;;;;;6.43;3.05;;;;;;;;;;5108299;28;20036;-92
2021/12/26 14:44:17;;;;;;;8.23;3.90;;;;;;;;;;5215741;22;20110;-89
2021/12/26 14:46:56;;;;;;;8.93;3.35;;;;;;;;;;5063070;28;20045;-92
2021/12/26 14:49:22;;;;;;;6.55;3.17;;;;;;;;;;5063042;28;20045;-91
2021/12/26 14:52:02;;;;;;;7.70;3.40;;;;;;;;;;5060997;28;20056;-92
2021/12/26 14:54:37;;;;;;;7.80;3.38;;;;;;;;;;5062959;28;20053;-92
2021/12/26 14:57:04;;;;;;;7.15;3.35;;;;;;;;;;5038758;28;20048;-90
2021/12/26 14:59:31;;;;;;;7.57;3.65;;;;;;;;;;5056308;28;20044;-91
2021/12/26 15:02:18;;;;;;;7.20;3.22;;;;;;;;;;5055759;28;20048;-87
2021/12/26 15:04:45;;;;;;;6.68;3.33;;;;;;;;;;5060168;28;20499;-92
2021/12/26 15:07:13;;;;;;;6.70;3.13;;;;;;;;;;5056134;28;20041;-91
2021/12/26 15:09:44;;;;;;;6.80;3.50;;;;;;;;;;5055140;28;20147;-92
2021/12/26 15:12:29;;;;;;;8.77;3.25;;;;;;;;;;5061507;28;20037;-91
2021/12/26 15:15:16;;;;;;;6.70;3.28;;;;;;;;;;5062173;28;20511;-91
2021/12/26 15:17:59;;;;;;;7.57;3.42;;;;;;;;;;5037798;28;20075;-93
2021/12/26 15:20:27;;;;;;;7.47;3.25;;;;;;;;;;5055535;28;20060;-92
2021/12/26 15:22:57;;;;;;;6.78;3.25;;;;;;;;;;5056376;28;20045;-90
2021/12/26 15:25:33;;;;;;;8.77;3.88;;;;;;;;;;5054010;28;20094;-91
2021/12/26 15:28:05;;;;;;;7.50;3.17;;;;;;;;;;5055371;28;20041;-91
2021/12/26 15:30:31;;;;;;;8.63;3.38;;;;;;;;;;5055219;28;20056;-91
2021/12/26 15:32:57;;;;;;;10.57;3.60;;;;;;;;;;5053868;28;20053;-91
2021/12/26 15:35:24;;;;;;;7.03;3.20;;;;;;;;;;5054111;28;20040;-89
2021/12/26 15:37:50;;;;;;;8.13;3.42;;;;;;;;;;5055314;28;20095;-91
2021/12/26 15:40:16;;;;;;;8.10;3.78;;;;;;;;;;5054247;28;20049;-91
2021/12/26 15:42:42;;;;;;;9.40;3.60;;;;;;;;;;5055274;28;20037;-91
2021/12/26 15:45:08;;;;;;;8.27;3.35;;;;;;;;;;5054785;28;20509;-91
2021/12/26 15:47:34;;;;;;;6.55;3.15;;;;;;;;;;5056136;28;20037;-89
2021/12/26 15:50:02;;;;;;;8.70;3.65;;;;;;;;;;5053833;28;20069;-89
2021/12/26 15:52:28;;;;;;;8.88;3.58;;;;;;;;;;5058060;28;20096;-88
2021/12/26 15:54:54;;;;;;;8.50;3.47;;;;;;;;;;5036253;28;20076;-86
2021/12/26 15:57:20;;;;;;;7.40;3.60;;;;;;;;;;5053570;28;20123;-87
2021/12/26 15:59:46;;;;;;;7.72;4.00;;;;;;;;;;5052884;28;20053;-86
2021/12/26 16:02:12;;;;;;;8.57;3.47;;;;;;;;;;5052106;28;20051;-87
2021/12/26 16:04:38;;;;;;;10.00;4.63;;;;;;;;;;5052482;28;20052;-86
2021/12/26 16:07:06;;;;;;;8.60;3.90;;;;;;;;;;5052002;28;20037;-87
2021/12/26 16:09:32;;;;;;;7.80;3.45;;;;;;;;;;5053589;28;20400;-87
2021/12/26 16:12:00;;;;;;;8.85;3.88;;;;;;;;;;5051972;28;20044;-86
2021/12/26 16:14:27;;;;;;;8.73;3.80;;;;;;;;;;5051508;28;20116;-87
2021/12/26 16:16:53;;;;;;;8.60;3.67;;;;;;;;;;5053149;28;20048;-89
2021/12/26 16:19:19;;;;;;;9.25;3.50;;;;;;;;;;5052059;28;20055;-86
2021/12/26 16:21:45;;;;;;;9.20;3.63;;;;;;;;;;5052073;28;20458;-87
2021/12/26 16:24:11;;;;;;;7.95;3.75;;;;;;;;;;5051774;28;20057;-86
2021/12/26 16:26:37;;;;;;;8.20;3.97;;;;;;;;;;5053268;28;20048;-87
2021/12/26 16:29:03;;;;;;;9.45;3.65;;;;;;;;;;5051914;28;20073;-88
2021/12/26 16:31:29;;;;;;;10.10;3.85;;;;;;;;;;5051856;28;20083;-86
2021/12/26 16:33:55;;;;;;;9.65;4.28;;;;;;;;;;5053682;28;20045;-90
2021/12/26 16:36:21;;;;;;;8.32;3.83;;;;;;;;;;5053473;28;20102;-90
2021/12/26 16:38:47;;;;;;;7.78;4.13;;;;;;;;;;5053344;28;20048;-88
2021/12/26 16:41:13;;;;;;;12.30;4.30;;;;;;;;;;5052401;28;20060;-89
2021/12/26 16:43:40;;;;;;;9.27;3.95;;;;;;;;;;5052984;28;20060;-88
2021/12/26 16:46:06;;;;;;;9.32;4.22;;;;;;;;;;5052730;28;20057;-88
2021/12/26 16:48:32;;;;;;;9.30;3.72;;;;;;;;;;5053046;28;20048;-86
2021/12/26 16:51:01;;;;;;;9.07;4.63;;;;;;;;;;5053820;28;20052;-88
2021/12/26 16:53:27;;;;;;;9.70;4.38;;;;;;;;;;5061241;28;20033;-88
2021/12/26 16:55:53;;;;;;;8.02;3.75;;;;;;;;;;5051716;28;20345;-89
2021/12/26 16:58:19;;;;;;;9.30;4.07;;;;;;;;;;5051316;28;20449;-87
2021/12/26 17:00:45;;;;;;;10.18;4.05;;;;;;;;;;5052767;28;20055;-89
2021/12/26 17:03:11;;;;;;;10.70;4.53;;;;;;;;;;5051243;28;20118;-89
2021/12/26 17:05:38;;;;;;;11.13;4.38;;;;;;;;;;5052890;28;20457;-88
2021/12/26 17:08:05;;;;;;;9.23;4.43;;;;;;;;;;5052682;28;20067;-88
2021/12/26 17:10:32;;;;;;;10.02;4.65;;;;;;;;;;5043535;28;20048;-88
2021/12/26 17:12:58;;;;;;;9.27;4.38;;;;;;;;;;5032523;28;20425;-89
2021/12/26 17:15:24;;;;;;;9.68;4.25;;;;;;;;;;5032355;28;20052;-89
2021/12/26 17:17:50;;;;;;;10.93;5.10;;;;;;;;;;5032280;28;20481;-92
2021/12/26 17:20:16;;;;;;;11.35;4.68;;;;;;;;;;5032265;28;20041;-91
2021/12/26 17:22:42;;;;;;;8.90;4.45;;;;;;;;;;5033534;28;20045;-91
2021/12/26 17:25:09;;;;;;;13.43;5.18;;;;;;;;;;5033577;28;20129;-92
2021/12/26 17:27:35;;;;;;;10.00;4.75;;;;;;;;;;5036913;28;20049;-84
2021/12/26 17:30:02;;;;;;;10.15;5.03;;;;;;;;;;5048612;28;20103;-91
2021/12/26 17:32:28;;;;;;;10.13;5.00;;;;;;;;;;5037375;28;20120;-89
2021/12/26 17:34:55;;;;;;;11.90;5.10;;;;;;;;;;5037657;28;20374;-91
2021/12/26 17:37:21;;;;;;;11.50;4.72;;;;;;;;;;5036296;28;20092;-90
2021/12/26 17:39:47;;;;;;;10.27;5.25;;;;;;;;;;5035860;28;20396;-86
2021/12/26 17:42:14;;;;;;;11.82;5.43;;;;;;;;;;5018806;28;20125;-85
2021/12/26 17:44:40;;;;;;;10.88;5.05;;;;;;;;;;5034770;28;20050;-86
2021/12/26 17:47:07;;;;;;;10.55;5.10;;;;;;;;;;5036337;28;20106;-90
2021/12/26 17:49:33;;;;;;;10.23;5.15;;;;;;;;;;5036430;28;20056;-88
2021/12/26 17:51:59;;;;;;;10.63;5.07;;;;;;;;;;5034811;28;20072;-85
2021/12/26 17:54:25;;;;;;;9.48;5.05;;;;;;;;;;5034849;28;20080;-85
2021/12/26 17:56:51;;;;;;;12.98;5.18;;;;;;;;;;5034701;28;20171;-86
2021/12/26 17:59:18;;;;;;;10.82;5.43;;;;;;;;;;5035123;28;20512;-86
2021/12/26 18:01:48;;;;;;;14.23;5.95;;;;;;;;;;5036308;28;20037;-88
2021/12/26 18:04:14;;;;;;;10.73;5.07;;;;;;;;;;5035416;28;20400;-88
2021/12/26 18:06:42;;;;;;;12.00;5.90;;;;;;;;;;5035117;28;20045;-86
2021/12/26 18:09:08;;;;;;;13.70;5.65;;;;;;;;;;5035178;28;20504;-89
2021/12/26 18:11:35;;;;;;;12.52;6.15;;;;;;;;;;5036573;28;20052;-88
2021/12/26 18:14:01;;;;;;;10.60;5.50;;;;;;;;;;5037916;28;20044;-90
2021/12/26 18:16:27;;;;;;;10.82;5.82;;;;;;;;;;5056328;28;20041;-90
2021/12/26 18:18:53;;;;;;;11.13;5.65;;;;;;;;;;5067586;28;20049;-90
2021/12/26 18:21:19;;;;;;;11.55;6.45;;;;;;;;;;5056401;28;20071;-91
2021/12/26 18:23:45;;;;;;;12.82;6.00;;;;;;;;;;5054562;28;20041;-90
2021/12/26 18:26:11;;;;;;;11.93;6.18;;;;;;;;;;5054718;28;20059;-92
2021/12/26 18:28:37;;;;;;;14.10;6.47;;;;;;;;;;5054364;28;20033;-90
2021/12/26 18:31:07;;;;;;;10.65;5.72;;;;;;;;;;5051721;28;20041;-91
2021/12/26 18:33:33;;;;;;;11.98;6.22;;;;;;;;;;5037842;28;20040;-91
2021/12/26 18:36:00;;;;;;;12.90;7.03;;;;;;;;;;5054980;28;20142;-91
2021/12/26 18:38:26;;;;;;;11.70;5.78;;;;;;;;;;5053938;28;20048;-90
2021/12/26 18:40:52;;;;;;;13.20;6.60;;;;;;;;;;5055033;28;20037;-91
2021/12/26 18:43:18;;;;;;;11.27;5.85;;;;;;;;;;5054520;28;20092;-88
2021/12/26 18:45:45;;;;;;;13.98;7.25;;;;;;;;;;5054523;28;20193;-90
2021/12/26 18:48:12;;;;;;;12.80;6.70;;;;;;;;;;5054556;28;20452;-92
2021/12/26 18:50:38;;;;;;;15.25;7.13;;;;;;;;;;5055620;28;20039;-87
2021/12/26 18:53:06;;;;;;;13.57;7.35;;;;;;;;;;5054148;28;20095;-87
2021/12/26 18:55:32;;;;;;;15.38;6.93;;;;;;;;;;5054088;28;20476;-89
2021/12/26 18:57:59;;;;;;;13.38;7.22;;;;;;;;;;5053992;28;20181;-89
2021/12/26 19:00:26;;;;;;;12.18;6.75;;;;;;;;;;5055443;28;20041;-89
2021/12/26 19:02:53;;;;;;;15.95;6.95;;;;;;;;;;5054995;28;20033;-88
2021/12/26 19:05:20;;;;;;;14.32;7.53;;;;;;;;;;5054094;28;20041;-88
2021/12/26 19:07:46;;;;;;;14.25;7.28;;;;;;;;;;5067553;28;20086;-90
2021/12/26 19:10:12;;;;;;;14.75;7.50;;;;;;;;;;5053836;28;20140;-90
2021/12/26 19:12:38;;;;;;;14.43;7.80;;;;;;;;;;5054920;28;20080;-87
2021/12/26 19:15:04;;;;;;;14.95;7.35;;;;;;;;;;5054087;28;20086;-89
2021/12/26 19:17:30;;;;;;;14.60;7.28;;;;;;;;;;5053877;28;20439;-91
2021/12/26 19:19:57;;;;;;;15.07;7.75;;;;;;;;;;5054119;28;20044;-86
2021/12/26 19:22:23;;;;;;;13.95;7.57;;;;;;;;;;5053883;28;20052;-89
2021/12/26 19:24:49;;;;;;;12.63;7.72;;;;;;;;;;5053623;28;20045;-90
2021/12/26 19:27:15;;;;;;;15.43;8.05;;;;;;;;;;5055057;28;20112;-89
2021/12/26 19:29:42;;;;;;;19.25;8.82;;;;;;;;;;5054112;28;20099;-89
2021/12/26 19:32:11;;;;;;;17.90;8.20;;;;;;;;;;5054987;28;20090;-91
2021/12/26 19:34:38;;;;;;;13.35;7.82;;;;;;;;;;5054566;28;20072;-88
2021/12/26 19:37:05;;;;;;;16.02;8.05;;;;;;;;;;5053872;28;20044;-90
2021/12/26 19:39:31;;;;;;;14.95;7.50;;;;;;;;;;5054379;28;20511;-89
2021/12/26 19:41:59;;;;;;;15.43;7.72;;;;;;;;;;5054898;28;20040;-89
2021/12/26 19:44:25;;;;;;;17.70;9.30;;;;;;;;;;5054117;28;20131;-89
2021/12/26 19:46:51;;;;;;;17.50;8.90;;;;;;;;;;5053753;28;20124;-89
2021/12/26 19:49:17;;;;;;;14.75;8.40;;;;;;;;;;5052498;28;20036;-91
2021/12/26 19:51:43;;;;;;;15.38;8.27;;;;;;;;;;5053110;28;20041;-89
2021/12/26 19:54:09;;;;;;;15.15;7.82;;;;;;;;;;5053015;28;20098;-89
2021/12/26 19:56:35;;;;;;;16.27;8.90;;;;;;;;;;5059804;28;20032;-77
2021/12/26 19:59:01;;;;;;;17.98;9.07;;;;;;;;;;5060563;28;20076;-91
2021/12/26 20:01:27;;;;;;;15.70;8.95;;;;;;;;;;5053265;28;20545;-88
2021/12/26 20:03:56;;;;;;;14.88;8.48;;;;;;;;;;5053926;28;20037;-90
2021/12/26 20:06:22;;;;;;;17.15;9.13;;;;;;;;;;5054280;28;20049;-90
2021/12/26 20:08:48;;;;;;;17.80;9.00;;;;;;;;;;5052814;28;20095;-90
2021/12/26 20:11:15;;;;;;;16.35;8.55;;;;;;;;;;5054396;28;20037;-91
2021/12/26 20:13:43;;;;;;;16.70;9.00;;;;;;;;;;5053813;28;20044;-90
2021/12/26 20:16:10;;;;;;;17.08;9.18;;;;;;;;;;5052774;28;20044;-86
2021/12/26 20:18:37;;;;;;;17.13;9.43;;;;;;;;;;5052311;28;20049;-91
2021/12/26 20:21:04;;;;;;;16.63;8.80;;;;;;;;;;5054033;28;20049;-91
2021/12/26 20:23:30;;;;;;;18.67;9.57;;;;;;;;;;5053821;28;20036;-89
2021/12/26 20:25:56;;;;;;;16.13;8.90;;;;;;;;;;5053811;28;20064;-89
2021/12/26 20:28:22;;;;;;;16.63;9.38;;;;;;;;;;5052592;28;20127;-87
2021/12/26 20:30:49;;;;;;;15.45;8.80;;;;;;;;;;5053792;28;20033;-89
2021/12/26 20:33:18;;;;;;;17.42;9.55;;;;;;;;;;5052111;28;20079;-90
2021/12/26 20:35:44;;;;;;;19.52;9.40;;;;;;;;;;5052692;28;20459;-88
2021/12/26 20:38:10;;;;;;;17.77;9.70;;;;;;;;;;5052577;28;20075;-87
2021/12/26 20:40:36;;;;;;;18.58;9.90;;;;;;;;;;5053051;28;20048;-87
2021/12/26 20:43:03;;;;;;;19.02;9.65;;;;;;;;;;5052115;28;20116;-89
2021/12/26 20:45:29;;;;;;;17.80;9.25;;;;;;;;;;5060915;28;20037;-82
2021/12/26 20:47:55;;;;;;;16.83;9.40;;;;;;;;;;5057139;28;20067;-89
2021/12/26 20:50:23;;;;;;;18.73;9.48;;;;;;;;;;5053241;28;20186;-88
2021/12/26 20:52:50;;;;;;;17.83;9.73;;;;;;;;;;5052512;28;20036;-88
2021/12/26 20:55:16;;;;;;;17.95;9.65;;;;;;;;;;5035402;28;20033;-88
2021/12/26 20:57:46;;;;;;;15.35;9.25;;;;;;;;;;5053503;28;20060;-89
2021/12/26 21:00:13;;;;;;;18.65;10.15;;;;;;;;;;5053018;28;20040;-87
2021/12/26 21:02:39;;;;;;;18.35;10.10;;;;;;;;;;5051861;28;20370;-90
2021/12/26 21:05:06;;;;;;;19.85;10.10;;;;;;;;;;5052529;28;20094;-86
2021/12/26 21:07:31;;;;;;;19.30;10.38;;;;;;;;;;5051729;28;20049;-86
2021/12/26 21:09:57;;;;;;;19.17;10.50;;;;;;;;;;5051595;28;20052;-85
2021/12/26 21:12:23;;;;;;;19.60;11.40;;;;;;;;;;5051370;28;20047;-87
2021/12/26 21:14:50;;;;;;;21.13;11.25;;;;;;;;;;5051375;28;20381;-87
2021/12/26 21:17:16;;;;;;;19.27;10.95;;;;;;;;;;5051422;28;20045;-86
2021/12/26 21:19:42;;;;;;;20.63;9.70;;;;;;;;;;5051355;28;20094;-86
2021/12/26 21:22:08;;;;;;;19.85;10.73;;;;;;;;;;5051237;28;20404;-85
2021/12/26 21:24:37;;;;;;;17.75;9.93;;;;;;;;;;5052338;28;20041;-85
2021/12/26 21:27:03;;;;;;;18.90;10.45;;;;;;;;;;5034942;28;20052;-87
2021/12/26 21:29:29;;;;;;;19.23;9.65;;;;;;;;;;5051369;28;20107;-87
2021/12/26 21:31:55;;;;;;;19.95;10.45;;;;;;;;;;5052753;28;20032;-86
2021/12/26 21:34:21;;;;;;;19.80;10.73;;;;;;;;;;5056893;28;20048;-84
2021/12/26 21:36:47;;;;;;;18.02;10.18;;;;;;;;;;5054834;28;20040;-86
2021/12/26 21:39:13;;;;;;;17.55;9.52;;;;;;;;;;5052552;28;20041;-86
2021/12/26 21:41:39;;;;;;;20.83;10.98;;;;;;;;;;5051346;28;20037;-86
2021/12/26 21:44:05;;;;;;;20.48;10.57;;;;;;;;;;5051973;28;20515;-86
2021/12/26 21:46:31;;;;;;;21.00;10.20;;;;;;;;;;5051022;28;20122;-86
2021/12/26 21:49:04;;;;;;;20.52;10.63;;;;;;;;;;5052283;28;20045;-86
2021/12/26 21:51:31;;;;;;;21.88;10.98;;;;;;;;;;5052302;28;20442;-86
2021/12/26 21:53:57;;;;;;;18.95;10.70;;;;;;;;;;5050882;28;20036;-86
2021/12/26 21:56:23;;;;;;;19.10;10.63;;;;;;;;;;5050857;28;20047;-86
2021/12/26 21:58:50;;;;;;;18.75;10.88;;;;;;;;;;5052420;28;20048;-87
2021/12/26 22:01:15;;;;;;;17.77;10.40;;;;;;;;;;5052259;28;20037;-84
2021/12/26 22:03:41;;;;;;;18.92;10.35;;;;;;;;;;5052337;28;20098;-84
2021/12/26 22:06:08;;;;;;;21.90;10.30;;;;;;;;;;5052169;28;20072;-85
2021/12/26 22:08:34;;;;;;;17.40;10.70;;;;;;;;;;5051251;28;20401;-85
2021/12/26 22:10:59;;;;;;;20.48;11.13;;;;;;;;;;5049934;28;20541;-86
2021/12/26 22:13:26;;;;;;;18.50;9.93;;;;;;;;;;5054616;28;20041;-87
